sensor_id;sensor_type;location;lat;lon;timestamp;P1;durP1;ratioP1;P2;durP2;ratioP2
60257;SDS011;46115;44.484;11.314;2023-03-24T00:02:54;4.43;;;3.10;;
60257;SDS011;46115;44.484;11.314;2023-03-24T00:07:01;4.88;;;2.97;;
60257;SDS011;46115;44.484;11.314;2023-03-24T00:11:06;6.95;;;2.60;;
60257;SDS011;46115;44.484;11.314;2023-03-24T00:15:12;5.32;;;2.83;;
60257;SDS011;46115;44.484;11.314;2023-03-24T00:19:16;3.92;;;2.78;;
60257;SDS011;46115;44.484;11.314;2023-03-24T00:23:19;4.63;;;3.20;;
60257;SDS011;46115;44.484;11.314;2023-03-24T00:27:23;5.03;;;2.95;;
60257;SDS011;46115;44.484;11.314;2023-03-24T00:31:30;4.60;;;2.83;;
60257;SDS011;46115;44.484;11.314;2023-03-24T00:35:32;5.95;;;2.97;;
60257;SDS011;46115;44.484;11.314;2023-03-24T00:39:35;4.82;;;3.17;;
60257;SDS011;46115;44.484;11.314;2023-03-24T00:43:39;4.57;;;3.00;;
60257;SDS011;46115;44.484;11.314;2023-03-24T00:47:42;4.32;;;2.97;;
60257;SDS011;46115;44.484;11.314;2023-03-24T00:51:44;5.03;;;2.90;;
60257;SDS011;46115;44.484;11.314;2023-03-24T00:55:47;5.43;;;2.90;;
60257;SDS011;46115;44.484;11.314;2023-03-24T00:59:52;5.05;;;3.08;;
60257;SDS011;46115;44.484;11.314;2023-03-24T01:03:55;5.72;;;3.22;;
60257;SDS011;46115;44.484;11.314;2023-03-24T01:07:59;5.45;;;3.20;;
60257;SDS011;46115;44.484;11.314;2023-03-24T01:12:03;5.30;;;3.10;;
60257;SDS011;46115;44.484;11.314;2023-03-24T01:16:08;4.18;;;3.30;;
60257;SDS011;46115;44.484;11.314;2023-03-24T01:20:11;5.82;;;3.47;;
60257;SDS011;46115;44.484;11.314;2023-03-24T01:24:14;5.05;;;2.90;;
60257;SDS011;46115;44.484;11.314;2023-03-24T01:28:18;6.15;;;3.42;;
60257;SDS011;46115;44.484;11.314;2023-03-24T01:32:25;5.22;;;3.10;;
60257;SDS011;46115;44.484;11.314;2023-03-24T01:36:28;6.40;;;3.10;;
60257;SDS011;46115;44.484;11.314;2023-03-24T01:40:31;4.95;;;3.20;;
60257;SDS011;46115;44.484;11.314;2023-03-24T01:44:35;3.78;;;2.90;;
60257;SDS011;46115;44.484;11.314;2023-03-24T01:48:41;5.28;;;3.00;;
60257;SDS011;46115;44.484;11.314;2023-03-24T01:52:47;4.65;;;2.90;;
60257;SDS011;46115;44.484;11.314;2023-03-24T01:56:52;5.07;;;3.30;;
60257;SDS011;46115;44.484;11.314;2023-03-24T02:00:57;5.60;;;2.88;;
60257;SDS011;46115;44.484;11.314;2023-03-24T02:05:34;5.97;;;3.10;;
60257;SDS011;46115;44.484;11.314;2023-03-24T02:09:39;4.53;;;3.08;;
60257;SDS011;46115;44.484;11.314;2023-03-24T02:13:42;3.92;;;3.38;;
60257;SDS011;46115;44.484;11.314;2023-03-24T02:17:49;3.15;;;2.85;;
60257;SDS011;46115;44.484;11.314;2023-03-24T02:26:44;4.50;;;3.00;;
60257;SDS011;46115;44.484;11.314;2023-03-24T02:31:00;4.38;;;3.03;;
60257;SDS011;46115;44.484;11.314;2023-03-24T02:35:24;3.78;;;3.00;;
60257;SDS011;46115;44.484;11.314;2023-03-24T02:39:55;6.00;;;3.15;;
60257;SDS011;46115;44.484;11.314;2023-03-24T02:44:13;5.78;;;2.83;;
60257;SDS011;46115;44.484;11.314;2023-03-24T02:48:22;4.03;;;2.88;;
60257;SDS011;46115;44.484;11.314;2023-03-24T02:52:35;5.35;;;3.25;;
60257;SDS011;46115;44.484;11.314;2023-03-24T02:56:48;5.72;;;3.10;;
60257;SDS011;46115;44.484;11.314;2023-03-24T03:01:11;5.50;;;3.20;;
60257;SDS011;46115;44.484;11.314;2023-03-24T03:05:44;4.82;;;3.17;;
60257;SDS011;46115;44.484;11.314;2023-03-24T03:09:53;5.32;;;3.20;;
60257;SDS011;46115;44.484;11.314;2023-03-24T03:14:01;4.78;;;3.25;;
60257;SDS011;46115;44.484;11.314;2023-03-24T03:18:08;4.95;;;3.15;;
60257;SDS011;46115;44.484;11.314;2023-03-24T03:22:16;4.72;;;3.20;;
60257;SDS011;46115;44.484;11.314;2023-03-24T03:26:24;5.88;;;3.60;;
60257;SDS011;46115;44.484;11.314;2023-03-24T03:30:34;5.05;;;3.47;;
60257;SDS011;46115;44.484;11.314;2023-03-24T03:34:41;5.25;;;2.95;;
60257;SDS011;46115;44.484;11.314;2023-03-24T03:38:48;4.13;;;3.60;;
60257;SDS011;46115;44.484;11.314;2023-03-24T03:42:57;5.93;;;3.63;;
60257;SDS011;46115;44.484;11.314;2023-03-24T03:47:01;5.60;;;3.75;;
60257;SDS011;46115;44.484;11.314;2023-03-24T03:51:13;5.72;;;3.92;;
60257;SDS011;46115;44.484;11.314;2023-03-24T03:55:24;5.22;;;3.80;;
60257;SDS011;46115;44.484;11.314;2023-03-24T03:59:27;4.43;;;3.83;;
60257;SDS011;46115;44.484;11.314;2023-03-24T04:03:44;6.35;;;3.80;;
60257;SDS011;46115;44.484;11.314;2023-03-24T04:08:15;4.80;;;3.67;;
60257;SDS011;46115;44.484;11.314;2023-03-24T04:12:32;4.93;;;3.53;;
60257;SDS011;46115;44.484;11.314;2023-03-24T04:17:07;4.63;;;3.90;;
60257;SDS011;46115;44.484;11.314;2023-03-24T04:21:30;5.88;;;3.75;;
60257;SDS011;46115;44.484;11.314;2023-03-24T04:25:50;4.90;;;3.83;;
60257;SDS011;46115;44.484;11.314;2023-03-24T04:30:05;6.63;;;4.20;;
60257;SDS011;46115;44.484;11.314;2023-03-24T04:34:17;5.15;;;3.95;;
60257;SDS011;46115;44.484;11.314;2023-03-24T04:38:24;4.97;;;3.70;;
60257;SDS011;46115;44.484;11.314;2023-03-24T04:43:03;4.10;;;3.40;;
60257;SDS011;46115;44.484;11.314;2023-03-24T04:47:08;5.07;;;3.75;;
60257;SDS011;46115;44.484;11.314;2023-03-24T04:51:17;5.45;;;3.65;;
60257;SDS011;46115;44.484;11.314;2023-03-24T05:00:16;5.47;;;3.85;;
60257;SDS011;46115;44.484;11.314;2023-03-24T05:04:20;6.38;;;3.70;;
60257;SDS011;46115;44.484;11.314;2023-03-24T05:08:24;4.80;;;3.50;;
60257;SDS011;46115;44.484;11.314;2023-03-24T05:12:28;4.00;;;3.40;;
60257;SDS011;46115;44.484;11.314;2023-03-24T05:16:51;5.57;;;3.67;;
60257;SDS011;46115;44.484;11.314;2023-03-24T05:20:55;4.18;;;3.45;;
60257;SDS011;46115;44.484;11.314;2023-03-24T05:24:59;7.50;;;3.97;;
60257;SDS011;46115;44.484;11.314;2023-03-24T05:29:03;6.05;;;3.75;;
60257;SDS011;46115;44.484;11.314;2023-03-24T05:33:05;4.43;;;3.60;;
60257;SDS011;46115;44.484;11.314;2023-03-24T05:37:08;4.00;;;3.60;;
60257;SDS011;46115;44.484;11.314;2023-03-24T05:41:13;5.07;;;3.45;;
60257;SDS011;46115;44.484;11.314;2023-03-24T05:45:18;4.25;;;3.42;;
60257;SDS011;46115;44.484;11.314;2023-03-24T05:49:20;6.55;;;3.90;;
60257;SDS011;46115;44.484;11.314;2023-03-24T05:53:23;4.95;;;3.67;;
60257;SDS011;46115;44.484;11.314;2023-03-24T05:57:52;4.10;;;3.70;;
60257;SDS011;46115;44.484;11.314;2023-03-24T06:02:18;9.68;;;3.78;;
60257;SDS011;46115;44.484;11.314;2023-03-24T06:06:38;4.78;;;3.50;;
60257;SDS011;46115;44.484;11.314;2023-03-24T06:10:40;6.60;;;3.47;;
60257;SDS011;46115;44.484;11.314;2023-03-24T06:14:43;6.25;;;3.75;;
60257;SDS011;46115;44.484;11.314;2023-03-24T06:18:49;4.05;;;3.45;;
60257;SDS011;46115;44.484;11.314;2023-03-24T06:23:12;4.13;;;3.40;;
60257;SDS011;46115;44.484;11.314;2023-03-24T06:27:41;3.88;;;3.15;;
60257;SDS011;46115;44.484;11.314;2023-03-24T06:31:47;4.75;;;3.05;;
60257;SDS011;46115;44.484;11.314;2023-03-24T06:35:51;3.10;;;2.80;;
60257;SDS011;46115;44.484;11.314;2023-03-24T06:39:54;5.97;;;2.90;;
60257;SDS011;46115;44.484;11.314;2023-03-24T06:44:00;4.10;;;2.70;;
60257;SDS011;46115;44.484;11.314;2023-03-24T06:48:02;6.35;;;2.70;;
60257;SDS011;46115;44.484;11.314;2023-03-24T06:52:06;4.82;;;2.60;;
60257;SDS011;46115;44.484;11.314;2023-03-24T06:56:13;4.05;;;2.67;;
60257;SDS011;46115;44.484;11.314;2023-03-24T07:00:22;3.35;;;2.55;;
60257;SDS011;46115;44.484;11.314;2023-03-24T07:04:38;3.90;;;2.55;;
60257;SDS011;46115;44.484;11.314;2023-03-24T07:08:48;3.40;;;2.45;;
60257;SDS011;46115;44.484;11.314;2023-03-24T07:12:51;4.53;;;2.50;;
60257;SDS011;46115;44.484;11.314;2023-03-24T07:16:54;3.13;;;2.47;;
60257;SDS011;46115;44.484;11.314;2023-03-24T07:20:59;3.10;;;2.17;;
60257;SDS011;46115;44.484;11.314;2023-03-24T07:25:04;3.10;;;2.25;;
60257;SDS011;46115;44.484;11.314;2023-03-24T07:29:16;3.63;;;2.30;;
60257;SDS011;46115;44.484;11.314;2023-03-24T07:33:51;2.63;;;2.10;;
60257;SDS011;46115;44.484;11.314;2023-03-24T07:37:56;3.22;;;1.90;;
60257;SDS011;46115;44.484;11.314;2023-03-24T07:42:01;4.40;;;2.10;;
60257;SDS011;46115;44.484;11.314;2023-03-24T07:46:13;3.92;;;2.20;;
60257;SDS011;46115;44.484;11.314;2023-03-24T07:50:16;6.30;;;1.80;;
60257;SDS011;46115;44.484;11.314;2023-03-24T07:54:19;3.72;;;1.95;;
60257;SDS011;46115;44.484;11.314;2023-03-24T07:58:24;3.78;;;1.90;;
60257;SDS011;46115;44.484;11.314;2023-03-24T08:02:50;2.72;;;1.70;;
60257;SDS011;46115;44.484;11.314;2023-03-24T08:07:13;2.78;;;1.90;;
60257;SDS011;46115;44.484;11.314;2023-03-24T08:11:16;3.13;;;1.80;;
60257;SDS011;46115;44.484;11.314;2023-03-24T08:15:21;1.95;;;1.60;;
60257;SDS011;46115;44.484;11.314;2023-03-24T08:19:24;3.83;;;1.50;;
60257;SDS011;46115;44.484;11.314;2023-03-24T08:23:27;3.03;;;1.70;;
60257;SDS011;46115;44.484;11.314;2023-03-24T08:27:30;2.67;;;1.50;;
60257;SDS011;46115;44.484;11.314;2023-03-24T08:31:34;2.80;;;1.70;;
60257;SDS011;46115;44.484;11.314;2023-03-24T08:35:37;2.25;;;1.42;;
60257;SDS011;46115;44.484;11.314;2023-03-24T08:39:42;3.92;;;1.55;;
60257;SDS011;46115;44.484;11.314;2023-03-24T08:43:45;3.08;;;1.55;;
60257;SDS011;46115;44.484;11.314;2023-03-24T08:47:50;2.38;;;1.70;;
60257;SDS011;46115;44.484;11.314;2023-03-24T08:51:53;2.60;;;1.58;;
60257;SDS011;46115;44.484;11.314;2023-03-24T08:55:56;4.45;;;1.73;;
60257;SDS011;46115;44.484;11.314;2023-03-24T08:59:59;2.95;;;1.73;;
60257;SDS011;46115;44.484;11.314;2023-03-24T09:04:03;3.22;;;1.42;;
60257;SDS011;46115;44.484;11.314;2023-03-24T09:08:05;2.63;;;1.67;;
60257;SDS011;46115;44.484;11.314;2023-03-24T09:12:08;2.15;;;1.30;;
60257;SDS011;46115;44.484;11.314;2023-03-24T09:16:11;2.53;;;1.20;;
60257;SDS011;46115;44.484;11.314;2023-03-24T09:20:16;2.50;;;1.30;;
60257;SDS011;46115;44.484;11.314;2023-03-24T09:24:19;2.15;;;1.30;;
60257;SDS011;46115;44.484;11.314;2023-03-24T09:28:21;1.90;;;1.10;;
60257;SDS011;46115;44.484;11.314;2023-03-24T09:32:24;3.67;;;1.60;;
60257;SDS011;46115;44.484;11.314;2023-03-24T09:36:28;5.03;;;2.13;;
60257;SDS011;46115;44.484;11.314;2023-03-24T09:40:31;4.30;;;2.00;;
60257;SDS011;46115;44.484;11.314;2023-03-24T09:44:37;4.32;;;2.03;;
60257;SDS011;46115;44.484;11.314;2023-03-24T09:48:44;3.00;;;2.30;;
60257;SDS011;46115;44.484;11.314;2023-03-24T09:52:55;3.38;;;2.10;;
60257;SDS011;46115;44.484;11.314;2023-03-24T09:57:07;5.50;;;2.75;;
60257;SDS011;46115;44.484;11.314;2023-03-24T10:01:18;4.25;;;2.97;;
60257;SDS011;46115;44.484;11.314;2023-03-24T10:05:21;7.22;;;3.22;;
60257;SDS011;46115;44.484;11.314;2023-03-24T10:09:32;5.40;;;3.60;;
60257;SDS011;46115;44.484;11.314;2023-03-24T10:13:40;6.75;;;3.40;;
60257;SDS011;46115;44.484;11.314;2023-03-24T10:17:54;7.13;;;3.20;;
60257;SDS011;46115;44.484;11.314;2023-03-24T10:22:03;8.73;;;3.83;;
60257;SDS011;46115;44.484;11.314;2023-03-24T10:26:17;6.47;;;3.70;;
60257;SDS011;46115;44.484;11.314;2023-03-24T10:30:28;7.70;;;3.90;;
60257;SDS011;46115;44.484;11.314;2023-03-24T10:34:34;7.65;;;4.35;;
60257;SDS011;46115;44.484;11.314;2023-03-24T10:38:40;5.78;;;4.40;;
60257;SDS011;46115;44.484;11.314;2023-03-24T10:42:45;6.25;;;4.00;;
60257;SDS011;46115;44.484;11.314;2023-03-24T10:46:51;5.65;;;4.30;;
60257;SDS011;46115;44.484;11.314;2023-03-24T10:50:55;6.55;;;4.40;;
60257;SDS011;46115;44.484;11.314;2023-03-24T10:55:01;8.80;;;3.90;;
60257;SDS011;46115;44.484;11.314;2023-03-24T10:59:15;6.82;;;4.55;;
60257;SDS011;46115;44.484;11.314;2023-03-24T11:03:29;8.40;;;4.60;;
60257;SDS011;46115;44.484;11.314;2023-03-24T11:07:34;9.88;;;4.82;;
60257;SDS011;46115;44.484;11.314;2023-03-24T11:11:38;6.22;;;5.10;;
60257;SDS011;46115;44.484;11.314;2023-03-24T11:15:51;6.63;;;5.18;;
60257;SDS011;46115;44.484;11.314;2023-03-24T11:19:56;6.03;;;4.95;;
60257;SDS011;46115;44.484;11.314;2023-03-24T11:23:58;7.55;;;5.55;;
60257;SDS011;46115;44.484;11.314;2023-03-24T11:28:04;7.93;;;5.38;;
60257;SDS011;46115;44.484;11.314;2023-03-24T11:32:12;8.70;;;5.47;;
60257;SDS011;46115;44.484;11.314;2023-03-24T11:36:39;6.85;;;6.18;;
60257;SDS011;46115;44.484;11.314;2023-03-24T11:40:53;7.78;;;5.68;;
60257;SDS011;46115;44.484;11.314;2023-03-24T11:45:01;6.22;;;5.45;;
60257;SDS011;46115;44.484;11.314;2023-03-24T11:49:05;7.03;;;5.72;;
60257;SDS011;46115;44.484;11.314;2023-03-24T11:53:11;7.10;;;5.10;;
60257;SDS011;46115;44.484;11.314;2023-03-24T11:57:20;7.03;;;5.95;;
60257;SDS011;46115;44.484;11.314;2023-03-24T12:01:27;9.25;;;5.88;;
60257;SDS011;46115;44.484;11.314;2023-03-24T12:05:39;6.90;;;5.65;;
60257;SDS011;46115;44.484;11.314;2023-03-24T12:09:47;9.18;;;6.00;;
60257;SDS011;46115;44.484;11.314;2023-03-24T12:13:57;9.40;;;6.57;;
60257;SDS011;46115;44.484;11.314;2023-03-24T12:18:08;9.50;;;5.13;;
60257;SDS011;46115;44.484;11.314;2023-03-24T12:22:24;10.40;;;6.85;;
60257;SDS011;46115;44.484;11.314;2023-03-24T12:26:34;9.68;;;7.20;;
60257;SDS011;46115;44.484;11.314;2023-03-24T12:30:39;11.38;;;7.35;;
60257;SDS011;46115;44.484;11.314;2023-03-24T12:35:03;8.95;;;7.85;;
60257;SDS011;46115;44.484;11.314;2023-03-24T12:39:24;13.57;;;7.05;;
60257;SDS011;46115;44.484;11.314;2023-03-24T12:43:34;10.32;;;7.43;;
60257;SDS011;46115;44.484;11.314;2023-03-24T12:47:49;7.73;;;6.47;;
60257;SDS011;46115;44.484;11.314;2023-03-24T12:52:11;7.03;;;6.28;;
60257;SDS011;46115;44.484;11.314;2023-03-24T12:56:29;9.18;;;6.72;;
60257;SDS011;46115;44.484;11.314;2023-03-24T13:00:36;11.35;;;7.22;;
60257;SDS011;46115;44.484;11.314;2023-03-24T13:04:42;7.78;;;5.95;;
60257;SDS011;46115;44.484;11.314;2023-03-24T13:08:51;9.30;;;6.95;;
60257;SDS011;46115;44.484;11.314;2023-03-24T13:13:17;9.85;;;7.10;;
60257;SDS011;46115;44.484;11.314;2023-03-24T13:17:25;8.38;;;6.88;;
60257;SDS011;46115;44.484;11.314;2023-03-24T13:21:30;9.95;;;7.28;;
60257;SDS011;46115;44.484;11.314;2023-03-24T13:25:36;7.70;;;6.00;;
60257;SDS011;46115;44.484;11.314;2023-03-24T13:34:25;9.32;;;6.95;;
60257;SDS011;46115;44.484;11.314;2023-03-24T13:38:32;12.77;;;7.25;;
60257;SDS011;46115;44.484;11.314;2023-03-24T13:42:41;10.63;;;6.28;;
60257;SDS011;46115;44.484;11.314;2023-03-24T13:46:59;9.50;;;7.93;;
60257;SDS011;46115;44.484;11.314;2023-03-24T13:51:13;7.43;;;5.90;;
60257;SDS011;46115;44.484;11.314;2023-03-24T13:55:20;12.38;;;7.40;;
60257;SDS011;46115;44.484;11.314;2023-03-24T13:59:28;8.45;;;6.82;;
60257;SDS011;46115;44.484;11.314;2023-03-24T14:03:35;8.95;;;5.95;;
60257;SDS011;46115;44.484;11.314;2023-03-24T14:07:44;7.55;;;6.10;;
60257;SDS011;46115;44.484;11.314;2023-03-24T14:11:48;10.15;;;5.68;;
60257;SDS011;46115;44.484;11.314;2023-03-24T14:20:33;6.97;;;4.82;;
60257;SDS011;46115;44.484;11.314;2023-03-24T14:24:37;8.70;;;5.53;;
60257;SDS011;46115;44.484;11.314;2023-03-24T14:28:41;7.22;;;5.60;;
60257;SDS011;46115;44.484;11.314;2023-03-24T14:32:46;7.00;;;5.32;;
60257;SDS011;46115;44.484;11.314;2023-03-24T14:36:56;8.35;;;4.88;;
60257;SDS011;46115;44.484;11.314;2023-03-24T14:41:04;5.95;;;4.68;;
60257;SDS011;46115;44.484;11.314;2023-03-24T14:49:40;5.82;;;4.57;;
60257;SDS011;46115;44.484;11.314;2023-03-24T14:53:46;6.53;;;4.10;;
60257;SDS011;46115;44.484;11.314;2023-03-24T14:57:50;7.53;;;4.03;;
60257;SDS011;46115;44.484;11.314;2023-03-24T15:01:58;9.95;;;3.80;;
60257;SDS011;46115;44.484;11.314;2023-03-24T15:06:11;5.65;;;4.25;;
60257;SDS011;46115;44.484;11.314;2023-03-24T15:10:18;7.47;;;4.43;;
60257;SDS011;46115;44.484;11.314;2023-03-24T15:14:21;9.40;;;4.05;;
60257;SDS011;46115;44.484;11.314;2023-03-24T15:18:25;5.35;;;3.47;;
60257;SDS011;46115;44.484;11.314;2023-03-24T15:22:29;6.47;;;2.90;;
60257;SDS011;46115;44.484;11.314;2023-03-24T15:26:43;4.25;;;2.08;;
60257;SDS011;46115;44.484;11.314;2023-03-24T15:30:46;5.28;;;1.75;;
60257;SDS011;46115;44.484;11.314;2023-03-24T15:34:50;2.92;;;1.75;;
60257;SDS011;46115;44.484;11.314;2023-03-24T15:38:54;2.22;;;1.50;;
60257;SDS011;46115;44.484;11.314;2023-03-24T15:42:59;3.72;;;1.27;;
60257;SDS011;46115;44.484;11.314;2023-03-24T15:47:03;2.63;;;1.00;;
60257;SDS011;46115;44.484;11.314;2023-03-24T15:51:16;2.55;;;1.30;;
60257;SDS011;46115;44.484;11.314;2023-03-24T15:55:29;2.25;;;1.05;;
60257;SDS011;46115;44.484;11.314;2023-03-24T15:59:35;2.08;;;1.25;;
60257;SDS011;46115;44.484;11.314;2023-03-24T16:03:39;2.00;;;1.10;;
60257;SDS011;46115;44.484;11.314;2023-03-24T16:07:43;1.75;;;1.17;;
60257;SDS011;46115;44.484;11.314;2023-03-24T16:11:45;4.53;;;1.27;;
60257;SDS011;46115;44.484;11.314;2023-03-24T16:15:51;3.03;;;1.25;;
60257;SDS011;46115;44.484;11.314;2023-03-24T16:19:57;3.42;;;1.20;;
60257;SDS011;46115;44.484;11.314;2023-03-24T16:24:00;4.63;;;1.30;;
60257;SDS011;46115;44.484;11.314;2023-03-24T16:28:02;2.97;;;1.30;;
60257;SDS011;46115;44.484;11.314;2023-03-24T16:32:07;3.75;;;1.23;;
60257;SDS011;46115;44.484;11.314;2023-03-24T16:36:10;2.72;;;1.20;;
60257;SDS011;46115;44.484;11.314;2023-03-24T16:40:19;1.85;;;1.20;;
60257;SDS011;46115;44.484;11.314;2023-03-24T16:44:25;1.52;;;1.15;;
60257;SDS011;46115;44.484;11.314;2023-03-24T16:48:29;2.33;;;1.30;;
60257;SDS011;46115;44.484;11.314;2023-03-24T16:52:32;2.88;;;1.27;;
60257;SDS011;46115;44.484;11.314;2023-03-24T16:56:35;2.95;;;1.20;;
60257;SDS011;46115;44.484;11.314;2023-03-24T17:00:38;2.45;;;1.10;;
60257;SDS011;46115;44.484;11.314;2023-03-24T17:04:44;3.58;;;1.20;;
60257;SDS011;46115;44.484;11.314;2023-03-24T17:08:47;1.60;;;1.00;;
60257;SDS011;46115;44.484;11.314;2023-03-24T17:12:51;3.97;;;1.20;;
60257;SDS011;46115;44.484;11.314;2023-03-24T17:16:55;1.80;;;1.13;;
60257;SDS011;46115;44.484;11.314;2023-03-24T17:21:00;3.05;;;1.30;;
60257;SDS011;46115;44.484;11.314;2023-03-24T17:25:03;2.80;;;1.10;;
60257;SDS011;46115;44.484;11.314;2023-03-24T17:29:08;2.25;;;1.20;;
60257;SDS011;46115;44.484;11.314;2023-03-24T17:33:11;1.98;;;1.20;;
60257;SDS011;46115;44.484;11.314;2023-03-24T17:37:16;2.25;;;1.20;;
60257;SDS011;46115;44.484;11.314;2023-03-24T17:41:18;2.50;;;1.38;;
60257;SDS011;46115;44.484;11.314;2023-03-24T17:45:21;1.90;;;1.30;;
60257;SDS011;46115;44.484;11.314;2023-03-24T17:49:23;3.53;;;1.17;;
60257;SDS011;46115;44.484;11.314;2023-03-24T17:53:27;3.05;;;1.30;;
60257;SDS011;46115;44.484;11.314;2023-03-24T17:57:33;4.80;;;1.15;;
60257;SDS011;46115;44.484;11.314;2023-03-24T18:01:35;2.03;;;1.30;;
60257;SDS011;46115;44.484;11.314;2023-03-24T18:05:39;2.53;;;1.40;;
60257;SDS011;46115;44.484;11.314;2023-03-24T23:06:08;3.33;;;1.27;;
60257;SDS011;46115;44.484;11.314;2023-03-24T23:10:12;2.50;;;1.60;;
60257;SDS011;46115;44.484;11.314;2023-03-24T23:14:14;2.30;;;1.67;;
60257;SDS011;46115;44.484;11.314;2023-03-24T23:18:18;3.08;;;1.67;;
60257;SDS011;46115;44.484;11.314;2023-03-24T23:22:22;2.97;;;1.73;;
60257;SDS011;46115;44.484;11.314;2023-03-24T23:26:25;3.58;;;1.70;;
60257;SDS011;46115;44.484;11.314;2023-03-24T23:30:29;3.40;;;1.55;;
60257;SDS011;46115;44.484;11.314;2023-03-24T23:34:32;2.40;;;1.50;;
60257;SDS011;46115;44.484;11.314;2023-03-24T23:38:37;2.88;;;1.77;;
60257;SDS011;46115;44.484;11.314;2023-03-24T23:42:42;2.13;;;1.60;;
60257;SDS011;46115;44.484;11.314;2023-03-24T23:46:45;3.33;;;1.70;;
60257;SDS011;46115;44.484;11.314;2023-03-24T23:50:53;3.55;;;1.55;;
60257;SDS011;46115;44.484;11.314;2023-03-24T23:54:57;2.22;;;1.60;;
60257;SDS011;46115;44.484;11.314;2023-03-24T23:59:02;4.75;;;1.60;;
